sensor_id;sensor_type;location;lat;lon;timestamp;temperature;humidity
18103;DHT22;9178;51.120;6.192;2022-08-11T00:01:44;20.40;70.40
18103;DHT22;9178;51.120;6.192;2022-08-11T00:04:13;20.30;70.90
18103;DHT22;9178;51.120;6.192;2022-08-11T00:06:41;20.30;70.70
18103;DHT22;9178;51.120;6.192;2022-08-11T00:09:11;20.30;71.20
18103;DHT22;9178;51.120;6.192;2022-08-11T00:11:40;20.20;71.30
18103;DHT22;9178;51.120;6.192;2022-08-11T00:14:14;20.20;71.70
18103;DHT22;9178;51.120;6.192;2022-08-11T00:16:43;20.10;71.50
18103;DHT22;9178;51.120;6.192;2022-08-11T00:19:12;20.10;72.00
18103;DHT22;9178;51.120;6.192;2022-08-11T00:21:45;20.10;72.00
18103;DHT22;9178;51.120;6.192;2022-08-11T00:24:12;20.00;72.40
18103;DHT22;9178;51.120;6.192;2022-08-11T00:26:46;20.00;72.40
18103;DHT22;9178;51.120;6.192;2022-08-11T00:29:14;19.90;72.60
18103;DHT22;9178;51.120;6.192;2022-08-11T00:31:46;19.90;72.60
18103;DHT22;9178;51.120;6.192;2022-08-11T00:34:17;19.80;77.40
18103;DHT22;9178;51.120;6.192;2022-08-11T00:36:49;19.70;79.60
18103;DHT22;9178;51.120;6.192;2022-08-11T00:39:19;19.60;83.60
18103;DHT22;9178;51.120;6.192;2022-08-11T00:41:58;19.50;83.70
18103;DHT22;9178;51.120;6.192;2022-08-11T00:44:37;19.40;84.40
18103;DHT22;9178;51.120;6.192;2022-08-11T00:47:20;19.30;83.70
18103;DHT22;9178;51.120;6.192;2022-08-11T00:50:00;19.30;85.60
18103;DHT22;9178;51.120;6.192;2022-08-11T00:52:38;19.20;91.10
18103;DHT22;9178;51.120;6.192;2022-08-11T01:01:42;18.80;94.80
18103;DHT22;9178;51.120;6.192;2022-08-11T01:04:29;18.80;96.20
18103;DHT22;9178;51.120;6.192;2022-08-11T01:10:15;18.60;97.90
18103;DHT22;9178;51.120;6.192;2022-08-11T01:12:57;18.60;98.30
18103;DHT22;9178;51.120;6.192;2022-08-11T01:15:55;18.50;98.60
18103;DHT22;9178;51.120;6.192;2022-08-11T01:18:59;18.50;97.60
18103;DHT22;9178;51.120;6.192;2022-08-11T01:22:17;18.40;97.60
18103;DHT22;9178;51.120;6.192;2022-08-11T01:25:02;18.40;98.30
18103;DHT22;9178;51.120;6.192;2022-08-11T01:28:03;18.30;99.90
18103;DHT22;9178;51.120;6.192;2022-08-11T01:31:13;18.30;99.90
18103;DHT22;9178;51.120;6.192;2022-08-11T01:34:16;18.30;99.90
18103;DHT22;9178;51.120;6.192;2022-08-11T01:37:01;18.20;99.90
18103;DHT22;9178;51.120;6.192;2022-08-11T01:45:40;18.10;99.90
18103;DHT22;9178;51.120;6.192;2022-08-11T01:48:18;18.10;99.90
18103;DHT22;9178;51.120;6.192;2022-08-11T01:51:02;18.00;99.90
18103;DHT22;9178;51.120;6.192;2022-08-11T01:53:38;18.00;99.90
18103;DHT22;9178;51.120;6.192;2022-08-11T01:56:35;18.00;99.90
18103;DHT22;9178;51.120;6.192;2022-08-11T01:59:10;18.00;99.90
18103;DHT22;9178;51.120;6.192;2022-08-11T02:01:53;17.90;99.90
18103;DHT22;9178;51.120;6.192;2022-08-11T02:04:28;17.90;99.90
18103;DHT22;9178;51.120;6.192;2022-08-11T02:07:02;17.90;99.90
18103;DHT22;9178;51.120;6.192;2022-08-11T02:09:49;17.90;99.90
18103;DHT22;9178;51.120;6.192;2022-08-11T02:12:45;17.90;99.90
18103;DHT22;9178;51.120;6.192;2022-08-11T02:15:19;17.80;99.90
18103;DHT22;9178;51.120;6.192;2022-08-11T02:17:59;17.80;99.90
18103;DHT22;9178;51.120;6.192;2022-08-11T02:20:34;17.80;99.90
18103;DHT22;9178;51.120;6.192;2022-08-11T02:23:24;17.70;99.90
18103;DHT22;9178;51.120;6.192;2022-08-11T02:26:14;17.70;99.90
18103;DHT22;9178;51.120;6.192;2022-08-11T02:28:54;17.70;99.90
18103;DHT22;9178;51.120;6.192;2022-08-11T02:31:32;17.70;99.90
18103;DHT22;9178;51.120;6.192;2022-08-11T02:34:27;17.70;99.90
18103;DHT22;9178;51.120;6.192;2022-08-11T02:37:02;17.60;99.90
18103;DHT22;9178;51.120;6.192;2022-08-11T02:39:46;17.60;99.90
18103;DHT22;9178;51.120;6.192;2022-08-11T02:45:18;17.40;99.90
18103;DHT22;9178;51.120;6.192;2022-08-11T02:48:02;17.30;99.90
18103;DHT22;9178;51.120;6.192;2022-08-11T02:50:52;17.30;99.90
18103;DHT22;9178;51.120;6.192;2022-08-11T02:53:29;17.20;99.90
18103;DHT22;9178;51.120;6.192;2022-08-11T02:56:05;17.10;99.90
18103;DHT22;9178;51.120;6.192;2022-08-11T02:58:43;17.10;99.90
18103;DHT22;9178;51.120;6.192;2022-08-11T03:01:42;17.00;99.90
18103;DHT22;9178;51.120;6.192;2022-08-11T03:04:15;17.00;99.90
18103;DHT22;9178;51.120;6.192;2022-08-11T03:06:48;17.00;99.90
18103;DHT22;9178;51.120;6.192;2022-08-11T03:09:20;16.90;99.90
18103;DHT22;9178;51.120;6.192;2022-08-11T03:11:58;16.90;99.90
18103;DHT22;9178;51.120;6.192;2022-08-11T03:14:48;16.90;99.90
18103;DHT22;9178;51.120;6.192;2022-08-11T03:17:40;16.80;99.90
18103;DHT22;9178;51.120;6.192;2022-08-11T03:20:20;16.80;99.90
18103;DHT22;9178;51.120;6.192;2022-08-11T03:22:53;16.80;99.90
18103;DHT22;9178;51.120;6.192;2022-08-11T03:25:28;16.80;99.90
18103;DHT22;9178;51.120;6.192;2022-08-11T03:28:08;16.70;99.90
18103;DHT22;9178;51.120;6.192;2022-08-11T03:30:43;16.70;99.90
18103;DHT22;9178;51.120;6.192;2022-08-11T03:33:20;16.70;99.90
18103;DHT22;9178;51.120;6.192;2022-08-11T03:36:22;16.60;99.90
18103;DHT22;9178;51.120;6.192;2022-08-11T03:39:04;16.60;99.90
18103;DHT22;9178;51.120;6.192;2022-08-11T03:41:36;16.60;99.90
18103;DHT22;9178;51.120;6.192;2022-08-11T03:44:28;16.60;99.90
18103;DHT22;9178;51.120;6.192;2022-08-11T03:50:06;16.50;99.90
18103;DHT22;9178;51.120;6.192;2022-08-11T03:52:47;16.50;99.90
18103;DHT22;9178;51.120;6.192;2022-08-11T03:55:26;16.50;99.90
18103;DHT22;9178;51.120;6.192;2022-08-11T03:58:26;16.40;99.90
18103;DHT22;9178;51.120;6.192;2022-08-11T04:01:18;16.50;99.90
18103;DHT22;9178;51.120;6.192;2022-08-11T04:07:22;16.50;99.90
18103;DHT22;9178;51.120;6.192;2022-08-11T04:10:33;16.50;99.90
18103;DHT22;9178;51.120;6.192;2022-08-11T04:13:19;16.50;99.90
18103;DHT22;9178;51.120;6.192;2022-08-11T04:16:15;16.50;99.90
18103;DHT22;9178;51.120;6.192;2022-08-11T04:19:13;16.40;99.90
18103;DHT22;9178;51.120;6.192;2022-08-11T04:22:18;16.40;99.90
18103;DHT22;9178;51.120;6.192;2022-08-11T04:27:57;16.30;99.90
18103;DHT22;9178;51.120;6.192;2022-08-11T04:30:48;16.20;99.90
18103;DHT22;9178;51.120;6.192;2022-08-11T04:33:48;16.20;99.90
18103;DHT22;9178;51.120;6.192;2022-08-11T04:36:56;16.20;99.90
18103;DHT22;9178;51.120;6.192;2022-08-11T04:39:59;16.10;99.90
18103;DHT22;9178;51.120;6.192;2022-08-11T04:49:07;16.10;99.90
18103;DHT22;9178;51.120;6.192;2022-08-11T04:52:08;16.20;99.90
18103;DHT22;9178;51.120;6.192;2022-08-11T04:55:13;16.20;99.90
18103;DHT22;9178;51.120;6.192;2022-08-11T04:58:11;16.20;99.90
18103;DHT22;9178;51.120;6.192;2022-08-11T05:01:10;16.20;99.90
18103;DHT22;9178;51.120;6.192;2022-08-11T05:04:20;16.30;99.90
18103;DHT22;9178;51.120;6.192;2022-08-11T05:07:34;16.30;99.90
18103;DHT22;9178;51.120;6.192;2022-08-11T05:10:18;16.30;99.90
18103;DHT22;9178;51.120;6.192;2022-08-11T05:12:52;16.40;99.90
18103;DHT22;9178;51.120;6.192;2022-08-11T05:15:26;16.40;99.90
18103;DHT22;9178;51.120;6.192;2022-08-11T05:18:15;16.50;99.90
18103;DHT22;9178;51.120;6.192;2022-08-11T05:21:06;16.50;99.90
18103;DHT22;9178;51.120;6.192;2022-08-11T05:23:56;16.60;99.90
18103;DHT22;9178;51.120;6.192;2022-08-11T05:26:46;16.70;99.90
18103;DHT22;9178;51.120;6.192;2022-08-11T05:29:39;16.80;99.90
18103;DHT22;9178;51.120;6.192;2022-08-11T05:32:29;16.80;99.90
18103;DHT22;9178;51.120;6.192;2022-08-11T05:35:23;16.90;99.90
18103;DHT22;9178;51.120;6.192;2022-08-11T05:37:50;17.00;99.90
18103;DHT22;9178;51.120;6.192;2022-08-11T05:40:35;17.10;99.90
18103;DHT22;9178;51.120;6.192;2022-08-11T05:43:21;17.20;99.90
18103;DHT22;9178;51.120;6.192;2022-08-11T05:46:06;17.30;99.90
18103;DHT22;9178;51.120;6.192;2022-08-11T05:48:51;17.40;99.90
18103;DHT22;9178;51.120;6.192;2022-08-11T05:51:40;17.50;99.90
18103;DHT22;9178;51.120;6.192;2022-08-11T05:54:25;17.60;99.90
18103;DHT22;9178;51.120;6.192;2022-08-11T05:57:17;17.70;99.90
18103;DHT22;9178;51.120;6.192;2022-08-11T05:59:47;17.80;99.90
18103;DHT22;9178;51.120;6.192;2022-08-11T06:02:15;17.90;99.90
18103;DHT22;9178;51.120;6.192;2022-08-11T06:04:42;17.90;99.90
18103;DHT22;9178;51.120;6.192;2022-08-11T06:07:11;18.10;99.90
18103;DHT22;9178;51.120;6.192;2022-08-11T06:09:47;18.20;99.90
18103;DHT22;9178;51.120;6.192;2022-08-11T06:12:17;18.30;99.90
18103;DHT22;9178;51.120;6.192;2022-08-11T06:14:44;18.40;99.90
18103;DHT22;9178;51.120;6.192;2022-08-11T06:17:21;18.50;99.90
18103;DHT22;9178;51.120;6.192;2022-08-11T06:19:49;18.60;99.90
18103;DHT22;9178;51.120;6.192;2022-08-11T06:22:19;18.70;99.90
18103;DHT22;9178;51.120;6.192;2022-08-11T06:24:52;18.80;99.90
18103;DHT22;9178;51.120;6.192;2022-08-11T06:27:21;18.90;99.90
18103;DHT22;9178;51.120;6.192;2022-08-11T06:29:52;19.10;99.90
18103;DHT22;9178;51.120;6.192;2022-08-11T06:32:24;19.20;99.90
18103;DHT22;9178;51.120;6.192;2022-08-11T06:35:05;19.20;99.90
18103;DHT22;9178;51.120;6.192;2022-08-11T06:37:55;19.40;99.90
18103;DHT22;9178;51.120;6.192;2022-08-11T06:40:34;19.50;99.90
18103;DHT22;9178;51.120;6.192;2022-08-11T06:43:09;19.60;99.90
18103;DHT22;9178;51.120;6.192;2022-08-11T06:45:40;19.70;99.90
18103;DHT22;9178;51.120;6.192;2022-08-11T06:48:17;19.80;99.90
18103;DHT22;9178;51.120;6.192;2022-08-11T06:50:49;19.90;99.90
18103;DHT22;9178;51.120;6.192;2022-08-11T06:53:35;20.00;99.90
18103;DHT22;9178;51.120;6.192;2022-08-11T06:56:05;20.10;99.90
18103;DHT22;9178;51.120;6.192;2022-08-11T06:58:50;20.20;99.90
18103;DHT22;9178;51.120;6.192;2022-08-11T07:01:40;20.30;99.90
18103;DHT22;9178;51.120;6.192;2022-08-11T07:04:13;20.40;99.90
18103;DHT22;9178;51.120;6.192;2022-08-11T07:06:51;20.50;99.90
18103;DHT22;9178;51.120;6.192;2022-08-11T07:09:59;20.60;99.90
18103;DHT22;9178;51.120;6.192;2022-08-11T07:12:49;20.80;99.90
18103;DHT22;9178;51.120;6.192;2022-08-11T07:15:36;20.90;99.90
18103;DHT22;9178;51.120;6.192;2022-08-11T07:18:13;21.20;99.90
18103;DHT22;9178;51.120;6.192;2022-08-11T07:21:12;21.40;99.90
18103;DHT22;9178;51.120;6.192;2022-08-11T07:24:00;21.60;99.90
18103;DHT22;9178;51.120;6.192;2022-08-11T07:26:50;21.70;99.90
18103;DHT22;9178;51.120;6.192;2022-08-11T07:29:37;22.00;99.90
18103;DHT22;9178;51.120;6.192;2022-08-11T07:32:14;22.50;99.90
18103;DHT22;9178;51.120;6.192;2022-08-11T07:34:47;22.90;99.90
18103;DHT22;9178;51.120;6.192;2022-08-11T07:37:17;23.40;99.40
18103;DHT22;9178;51.120;6.192;2022-08-11T07:39:46;23.80;97.20
18103;DHT22;9178;51.120;6.192;2022-08-11T07:42:15;24.20;96.00
18103;DHT22;9178;51.120;6.192;2022-08-11T07:44:43;24.50;96.60
18103;DHT22;9178;51.120;6.192;2022-08-11T07:47:30;24.80;95.60
18103;DHT22;9178;51.120;6.192;2022-08-11T07:50:15;25.10;92.20
18103;DHT22;9178;51.120;6.192;2022-08-11T07:53:01;25.50;92.10
18103;DHT22;9178;51.120;6.192;2022-08-11T07:55:29;25.80;88.60
18103;DHT22;9178;51.120;6.192;2022-08-11T07:57:59;26.00;86.40
18103;DHT22;9178;51.120;6.192;2022-08-11T08:00:45;26.30;89.20
18103;DHT22;9178;51.120;6.192;2022-08-11T08:03:30;26.60;83.10
18103;DHT22;9178;51.120;6.192;2022-08-11T08:06:17;26.80;83.90
18103;DHT22;9178;51.120;6.192;2022-08-11T08:09:04;27.10;83.20
18103;DHT22;9178;51.120;6.192;2022-08-11T08:11:49;27.40;81.70
18103;DHT22;9178;51.120;6.192;2022-08-11T08:14:34;27.60;81.40
18103;DHT22;9178;51.120;6.192;2022-08-11T08:17:19;27.80;80.40
18103;DHT22;9178;51.120;6.192;2022-08-11T08:20:05;27.90;76.80
18103;DHT22;9178;51.120;6.192;2022-08-11T08:22:35;28.00;75.70
18103;DHT22;9178;51.120;6.192;2022-08-11T08:25:05;28.30;71.70
18103;DHT22;9178;51.120;6.192;2022-08-11T08:27:34;28.40;72.60
18103;DHT22;9178;51.120;6.192;2022-08-11T08:30:01;28.50;74.80
18103;DHT22;9178;51.120;6.192;2022-08-11T08:32:46;28.80;73.90
18103;DHT22;9178;51.120;6.192;2022-08-11T08:35:14;29.00;72.80
18103;DHT22;9178;51.120;6.192;2022-08-11T08:37:41;29.10;67.40
18103;DHT22;9178;51.120;6.192;2022-08-11T08:40:12;29.10;65.80
18103;DHT22;9178;51.120;6.192;2022-08-11T08:42:43;29.30;63.90
18103;DHT22;9178;51.120;6.192;2022-08-11T08:45:12;29.30;65.60
18103;DHT22;9178;51.120;6.192;2022-08-11T08:47:45;29.50;62.90
18103;DHT22;9178;51.120;6.192;2022-08-11T08:50:15;29.60;64.80
18103;DHT22;9178;51.120;6.192;2022-08-11T08:52:48;29.70;63.30
18103;DHT22;9178;51.120;6.192;2022-08-11T08:55:18;29.70;62.60
18103;DHT22;9178;51.120;6.192;2022-08-11T08:57:48;29.90;64.00
18103;DHT22;9178;51.120;6.192;2022-08-11T09:00:16;30.20;64.20
18103;DHT22;9178;51.120;6.192;2022-08-11T09:02:44;30.40;66.30
18103;DHT22;9178;51.120;6.192;2022-08-11T09:05:12;30.50;60.40
18103;DHT22;9178;51.120;6.192;2022-08-11T09:07:42;30.50;59.60
18103;DHT22;9178;51.120;6.192;2022-08-11T09:10:13;30.60;59.30
18103;DHT22;9178;51.120;6.192;2022-08-11T09:12:43;30.60;61.40
18103;DHT22;9178;51.120;6.192;2022-08-11T09:15:11;30.60;58.50
18103;DHT22;9178;51.120;6.192;2022-08-11T09:17:41;30.40;57.50
18103;DHT22;9178;51.120;6.192;2022-08-11T09:20:12;30.20;59.10
18103;DHT22;9178;51.120;6.192;2022-08-11T09:22:41;30.00;57.30
18103;DHT22;9178;51.120;6.192;2022-08-11T09:25:29;29.80;56.20
18103;DHT22;9178;51.120;6.192;2022-08-11T09:28:18;29.60;55.90
18103;DHT22;9178;51.120;6.192;2022-08-11T09:30:47;29.40;56.80
18103;DHT22;9178;51.120;6.192;2022-08-11T09:33:19;29.30;59.20
18103;DHT22;9178;51.120;6.192;2022-08-11T09:35:48;29.30;57.20
18103;DHT22;9178;51.120;6.192;2022-08-11T09:38:17;29.20;56.60
18103;DHT22;9178;51.120;6.192;2022-08-11T09:41:03;29.10;56.90
18103;DHT22;9178;51.120;6.192;2022-08-11T09:43:35;29.00;56.90
18103;DHT22;9178;51.120;6.192;2022-08-11T09:46:23;29.10;57.60
18103;DHT22;9178;51.120;6.192;2022-08-11T09:48:54;29.20;56.70
18103;DHT22;9178;51.120;6.192;2022-08-11T09:51:24;29.30;56.20
18103;DHT22;9178;51.120;6.192;2022-08-11T09:53:51;29.40;55.90
18103;DHT22;9178;51.120;6.192;2022-08-11T09:56:22;29.60;56.10
18103;DHT22;9178;51.120;6.192;2022-08-11T09:59:09;29.80;54.00
18103;DHT22;9178;51.120;6.192;2022-08-11T10:01:40;29.80;52.50
18103;DHT22;9178;51.120;6.192;2022-08-11T10:04:11;29.80;52.40
18103;DHT22;9178;51.120;6.192;2022-08-11T10:06:41;30.00;53.90
18103;DHT22;9178;51.120;6.192;2022-08-11T10:09:27;30.40;53.70
18103;DHT22;9178;51.120;6.192;2022-08-11T10:11:57;30.90;51.70
18103;DHT22;9178;51.120;6.192;2022-08-11T10:14:26;31.60;50.00
18103;DHT22;9178;51.120;6.192;2022-08-11T10:17:14;31.80;49.50
18103;DHT22;9178;51.120;6.192;2022-08-11T10:19:45;32.20;49.70
18103;DHT22;9178;51.120;6.192;2022-08-11T10:22:14;32.60;48.70
18103;DHT22;9178;51.120;6.192;2022-08-11T10:25:00;33.30;50.40
18103;DHT22;9178;51.120;6.192;2022-08-11T10:27:45;34.20;46.30
18103;DHT22;9178;51.120;6.192;2022-08-11T10:30:15;34.50;48.30
18103;DHT22;9178;51.120;6.192;2022-08-11T10:33:01;34.90;48.30
18103;DHT22;9178;51.120;6.192;2022-08-11T10:35:45;35.60;46.20
18103;DHT22;9178;51.120;6.192;2022-08-11T10:38:13;36.40;44.00
18103;DHT22;9178;51.120;6.192;2022-08-11T10:40:44;36.60;42.80
18103;DHT22;9178;51.120;6.192;2022-08-11T10:43:33;37.20;41.60
18103;DHT22;9178;51.120;6.192;2022-08-11T10:46:00;37.10;39.60
18103;DHT22;9178;51.120;6.192;2022-08-11T10:48:45;36.80;39.90
18103;DHT22;9178;51.120;6.192;2022-08-11T10:51:13;36.80;40.50
18103;DHT22;9178;51.120;6.192;2022-08-11T10:53:41;37.00;40.50
18103;DHT22;9178;51.120;6.192;2022-08-11T10:56:28;37.50;39.40
18103;DHT22;9178;51.120;6.192;2022-08-11T10:59:14;38.20;40.80
18103;DHT22;9178;51.120;6.192;2022-08-11T11:01:44;38.70;38.50
18103;DHT22;9178;51.120;6.192;2022-08-11T11:04:13;38.80;40.30
18103;DHT22;9178;51.120;6.192;2022-08-11T11:06:49;38.90;38.50
18103;DHT22;9178;51.120;6.192;2022-08-11T11:09:19;39.10;36.50
18103;DHT22;9178;51.120;6.192;2022-08-11T11:11:50;39.00;36.50
18103;DHT22;9178;51.120;6.192;2022-08-11T11:14:37;39.20;37.90
18103;DHT22;9178;51.120;6.192;2022-08-11T11:17:28;39.50;38.10
18103;DHT22;9178;51.120;6.192;2022-08-11T11:20:16;39.70;35.10
18103;DHT22;9178;51.120;6.192;2022-08-11T11:22:44;39.60;35.20
18103;DHT22;9178;51.120;6.192;2022-08-11T11:25:21;39.30;36.30
18103;DHT22;9178;51.120;6.192;2022-08-11T11:31:02;39.20;35.10
18103;DHT22;9178;51.120;6.192;2022-08-11T11:33:48;39.50;34.40
18103;DHT22;9178;51.120;6.192;2022-08-11T11:36:25;39.60;36.30
18103;DHT22;9178;51.120;6.192;2022-08-11T11:38:54;39.20;33.60
18103;DHT22;9178;51.120;6.192;2022-08-11T11:41:22;38.90;34.00
18103;DHT22;9178;51.120;6.192;2022-08-11T11:43:53;39.10;34.00
18103;DHT22;9178;51.120;6.192;2022-08-11T11:46:25;39.30;36.70
18103;DHT22;9178;51.120;6.192;2022-08-11T11:48:54;39.80;34.80
18103;DHT22;9178;51.120;6.192;2022-08-11T11:51:22;40.00;33.90
18103;DHT22;9178;51.120;6.192;2022-08-11T11:53:50;40.10;31.80
18103;DHT22;9178;51.120;6.192;2022-08-11T11:56:18;39.90;32.80
18103;DHT22;9178;51.120;6.192;2022-08-11T11:58:46;40.00;32.60
18103;DHT22;9178;51.120;6.192;2022-08-11T12:01:32;39.90;34.30
18103;DHT22;9178;51.120;6.192;2022-08-11T12:04:02;40.00;31.70
18103;DHT22;9178;51.120;6.192;2022-08-11T12:06:31;40.10;33.80
18103;DHT22;9178;51.120;6.192;2022-08-11T12:08:59;40.30;32.20
18103;DHT22;9178;51.120;6.192;2022-08-11T12:11:27;40.30;32.70
18103;DHT22;9178;51.120;6.192;2022-08-11T12:14:15;40.10;31.20
18103;DHT22;9178;51.120;6.192;2022-08-11T12:16:45;39.70;32.10
18103;DHT22;9178;51.120;6.192;2022-08-11T12:19:21;39.50;31.50
18103;DHT22;9178;51.120;6.192;2022-08-11T12:21:49;38.80;31.20
18103;DHT22;9178;51.120;6.192;2022-08-11T12:24:36;37.90;34.50
18103;DHT22;9178;51.120;6.192;2022-08-11T12:27:21;37.80;32.90
18103;DHT22;9178;51.120;6.192;2022-08-11T12:29:50;37.20;33.60
18103;DHT22;9178;51.120;6.192;2022-08-11T12:32:18;36.80;33.40
18103;DHT22;9178;51.120;6.192;2022-08-11T12:34:47;36.40;33.80
18103;DHT22;9178;51.120;6.192;2022-08-11T12:37:15;36.20;34.70
18103;DHT22;9178;51.120;6.192;2022-08-11T12:39:50;35.80;34.10
18103;DHT22;9178;51.120;6.192;2022-08-11T12:42:36;35.70;35.00
18103;DHT22;9178;51.120;6.192;2022-08-11T12:45:25;35.60;35.00
18103;DHT22;9178;51.120;6.192;2022-08-11T12:48:07;35.80;35.10
18103;DHT22;9178;51.120;6.192;2022-08-11T12:50:57;36.30;34.30
18103;DHT22;9178;51.120;6.192;2022-08-11T12:53:52;36.30;34.00
18103;DHT22;9178;51.120;6.192;2022-08-11T12:56:20;36.10;34.70
18103;DHT22;9178;51.120;6.192;2022-08-11T12:59:06;35.90;34.80
18103;DHT22;9178;51.120;6.192;2022-08-11T13:01:51;36.00;35.20
18103;DHT22;9178;51.120;6.192;2022-08-11T13:04:37;35.90;35.10
18103;DHT22;9178;51.120;6.192;2022-08-11T13:07:20;36.00;35.30
18103;DHT22;9178;51.120;6.192;2022-08-11T13:09:47;36.70;35.40
18103;DHT22;9178;51.120;6.192;2022-08-11T13:12:19;37.50;33.30
18103;DHT22;9178;51.120;6.192;2022-08-11T13:15:05;37.60;34.40
18103;DHT22;9178;51.120;6.192;2022-08-11T13:17:33;38.00;32.60
18103;DHT22;9178;51.120;6.192;2022-08-11T13:20:00;38.10;33.40
18103;DHT22;9178;51.120;6.192;2022-08-11T13:22:30;38.10;34.60
18103;DHT22;9178;51.120;6.192;2022-08-11T13:24:57;38.40;35.90
18103;DHT22;9178;51.120;6.192;2022-08-11T13:27:24;38.80;33.50
18103;DHT22;9178;51.120;6.192;2022-08-11T13:29:52;39.00;33.30
18103;DHT22;9178;51.120;6.192;2022-08-11T13:32:41;39.10;33.10
18103;DHT22;9178;51.120;6.192;2022-08-11T13:35:11;39.10;32.10
18103;DHT22;9178;51.120;6.192;2022-08-11T13:37:41;39.20;32.20
18103;DHT22;9178;51.120;6.192;2022-08-11T13:40:11;39.30;32.80
18103;DHT22;9178;51.120;6.192;2022-08-11T13:42:38;39.40;33.50
18103;DHT22;9178;51.120;6.192;2022-08-11T13:45:07;39.50;31.90
18103;DHT22;9178;51.120;6.192;2022-08-11T13:47:34;39.30;33.80
18103;DHT22;9178;51.120;6.192;2022-08-11T13:50:03;39.60;33.90
18103;DHT22;9178;51.120;6.192;2022-08-11T13:52:30;40.10;32.40
18103;DHT22;9178;51.120;6.192;2022-08-11T13:55:00;40.40;33.00
18103;DHT22;9178;51.120;6.192;2022-08-11T13:57:31;40.60;32.20
18103;DHT22;9178;51.120;6.192;2022-08-11T13:59:59;40.70;32.30
18103;DHT22;9178;51.120;6.192;2022-08-11T14:02:38;40.90;33.40
18103;DHT22;9178;51.120;6.192;2022-08-11T14:05:09;41.20;32.10
18103;DHT22;9178;51.120;6.192;2022-08-11T14:07:39;41.30;32.20
18103;DHT22;9178;51.120;6.192;2022-08-11T14:10:11;41.00;31.30
18103;DHT22;9178;51.120;6.192;2022-08-11T14:12:40;41.20;31.20
18103;DHT22;9178;51.120;6.192;2022-08-11T14:15:31;41.20;31.40
18103;DHT22;9178;51.120;6.192;2022-08-11T14:18:02;41.40;32.80
18103;DHT22;9178;51.120;6.192;2022-08-11T14:20:31;41.50;32.40
18103;DHT22;9178;51.120;6.192;2022-08-11T14:23:21;41.80;30.50
18103;DHT22;9178;51.120;6.192;2022-08-11T14:25:50;41.60;31.40
18103;DHT22;9178;51.120;6.192;2022-08-11T14:28:35;41.50;32.00
18103;DHT22;9178;51.120;6.192;2022-08-11T14:31:03;41.40;32.60
18103;DHT22;9178;51.120;6.192;2022-08-11T14:33:34;41.40;31.80
18103;DHT22;9178;51.120;6.192;2022-08-11T14:36:02;41.40;32.10
18103;DHT22;9178;51.120;6.192;2022-08-11T14:38:32;41.10;33.60
18103;DHT22;9178;51.120;6.192;2022-08-11T14:41:01;40.90;31.20
18103;DHT22;9178;51.120;6.192;2022-08-11T14:43:46;40.70;32.60
18103;DHT22;9178;51.120;6.192;2022-08-11T14:46:34;40.70;31.80
18103;DHT22;9178;51.120;6.192;2022-08-11T14:49:18;40.50;32.30
18103;DHT22;9178;51.120;6.192;2022-08-11T14:51:47;40.50;33.30
18103;DHT22;9178;51.120;6.192;2022-08-11T14:54:15;40.60;32.80
18103;DHT22;9178;51.120;6.192;2022-08-11T14:57:01;40.60;31.80
18103;DHT22;9178;51.120;6.192;2022-08-11T14:59:29;40.20;32.00
18103;DHT22;9178;51.120;6.192;2022-08-11T15:01:56;39.80;33.30
18103;DHT22;9178;51.120;6.192;2022-08-11T15:04:40;39.80;32.80
18103;DHT22;9178;51.120;6.192;2022-08-11T15:07:08;39.90;33.20
18103;DHT22;9178;51.120;6.192;2022-08-11T15:09:36;39.90;33.00
18103;DHT22;9178;51.120;6.192;2022-08-11T15:12:06;40.00;33.10
18103;DHT22;9178;51.120;6.192;2022-08-11T15:14:41;40.00;33.20
18103;DHT22;9178;51.120;6.192;2022-08-11T15:17:26;40.00;32.90
18103;DHT22;9178;51.120;6.192;2022-08-11T15:19:54;39.80;32.40
18103;DHT22;9178;51.120;6.192;2022-08-11T15:22:38;39.70;31.60
18103;DHT22;9178;51.120;6.192;2022-08-11T15:25:23;39.30;33.00
18103;DHT22;9178;51.120;6.192;2022-08-11T15:27:53;39.20;33.20
18103;DHT22;9178;51.120;6.192;2022-08-11T15:30:39;39.10;32.60
18103;DHT22;9178;51.120;6.192;2022-08-11T15:33:26;38.60;32.70
18103;DHT22;9178;51.120;6.192;2022-08-11T15:36:13;38.50;32.90
18103;DHT22;9178;51.120;6.192;2022-08-11T15:39:00;38.60;34.70
18103;DHT22;9178;51.120;6.192;2022-08-11T15:41:32;38.60;34.40
18103;DHT22;9178;51.120;6.192;2022-08-11T15:44:20;38.50;33.10
18103;DHT22;9178;51.120;6.192;2022-08-11T15:47:07;38.50;32.60
18103;DHT22;9178;51.120;6.192;2022-08-11T15:49:37;38.20;35.10
18103;DHT22;9178;51.120;6.192;2022-08-11T15:52:08;38.20;34.00
18103;DHT22;9178;51.120;6.192;2022-08-11T15:54:40;38.30;34.50
18103;DHT22;9178;51.120;6.192;2022-08-11T15:57:08;38.30;34.40
18103;DHT22;9178;51.120;6.192;2022-08-11T15:59:58;38.20;34.60
18103;DHT22;9178;51.120;6.192;2022-08-11T16:02:46;38.10;34.20
18103;DHT22;9178;51.120;6.192;2022-08-11T16:05:32;38.10;34.40
18103;DHT22;9178;51.120;6.192;2022-08-11T16:08:00;38.00;33.90
18103;DHT22;9178;51.120;6.192;2022-08-11T16:10:27;37.80;34.00
18103;DHT22;9178;51.120;6.192;2022-08-11T16:12:57;37.60;34.10
18103;DHT22;9178;51.120;6.192;2022-08-11T16:15:48;37.50;35.10
18103;DHT22;9178;51.120;6.192;2022-08-11T16:18:37;37.40;35.40
18103;DHT22;9178;51.120;6.192;2022-08-11T16:21:10;37.40;35.40
18103;DHT22;9178;51.120;6.192;2022-08-11T16:23:39;37.40;34.50
18103;DHT22;9178;51.120;6.192;2022-08-11T16:26:09;37.30;35.70
18103;DHT22;9178;51.120;6.192;2022-08-11T16:28:37;37.20;35.20
18103;DHT22;9178;51.120;6.192;2022-08-11T16:31:07;37.10;34.60
18103;DHT22;9178;51.120;6.192;2022-08-11T16:33:36;37.00;35.50
18103;DHT22;9178;51.120;6.192;2022-08-11T16:36:06;36.70;35.20
18103;DHT22;9178;51.120;6.192;2022-08-11T16:38:52;36.50;35.20
18103;DHT22;9178;51.120;6.192;2022-08-11T16:41:22;36.10;35.30
18103;DHT22;9178;51.120;6.192;2022-08-11T16:44:04;35.70;36.10
18103;DHT22;9178;51.120;6.192;2022-08-11T16:46:51;35.50;36.50
18103;DHT22;9178;51.120;6.192;2022-08-11T16:49:30;35.10;35.90
18103;DHT22;9178;51.120;6.192;2022-08-11T16:51:58;34.80;36.30
18103;DHT22;9178;51.120;6.192;2022-08-11T16:54:27;34.60;36.70
18103;DHT22;9178;51.120;6.192;2022-08-11T16:56:55;34.30;37.10
18103;DHT22;9178;51.120;6.192;2022-08-11T16:59:42;34.00;36.90
18103;DHT22;9178;51.120;6.192;2022-08-11T17:02:14;33.80;37.60
18103;DHT22;9178;51.120;6.192;2022-08-11T17:05:08;33.60;38.60
18103;DHT22;9178;51.120;6.192;2022-08-11T17:07:56;33.40;37.90
18103;DHT22;9178;51.120;6.192;2022-08-11T17:10:54;33.20;38.70
18103;DHT22;9178;51.120;6.192;2022-08-11T17:13:41;32.90;39.30
18103;DHT22;9178;51.120;6.192;2022-08-11T17:16:10;32.70;39.40
18103;DHT22;9178;51.120;6.192;2022-08-11T17:18:48;32.50;39.50
18103;DHT22;9178;51.120;6.192;2022-08-11T17:21:19;32.30;40.10
18103;DHT22;9178;51.120;6.192;2022-08-11T17:23:50;32.00;40.10
18103;DHT22;9178;51.120;6.192;2022-08-11T17:26:18;31.90;40.20
18103;DHT22;9178;51.120;6.192;2022-08-11T17:28:47;31.70;40.20
18103;DHT22;9178;51.120;6.192;2022-08-11T17:31:17;31.60;41.00
18103;DHT22;9178;51.120;6.192;2022-08-11T17:34:04;31.50;41.20